Time;durP1;ratioP1;P1;durP2;ratioP2;P2;SDS_P1;SDS_P2;PMS_P1;PMS_P2;Temp;Humidity;BMP_temperature;BMP_pressure;BME280_temperature;BME280_humidity;BME280_pressure;Samples;Min_cycle;Max_cycle;Signal;HPM_P1;HPM_P2
2024/01/29 04:02:18;;;;;;;3.50;2.63;;;21.30;25.10;;;;;;5085062;23;46589;-82
2024/01/29 04:04:44;;;;;;;4.07;2.97;;;21.30;25.20;;;;;;4930431;28;44928;-83
2024/01/29 04:07:09;;;;;;;4.05;2.55;;;21.30;25.20;;;;;;4964887;28;47729;-84
2024/01/29 04:09:35;;;;;;;3.08;2.30;;;21.30;25.20;;;;;;4960990;28;44771;-84
2024/01/29 04:12:07;;;;;;;3.50;2.70;;;21.30;25.20;;;;;;4984776;28;45338;-82
2024/01/29 04:14:34;;;;;;;4.43;2.88;;;21.30;25.20;;;;;;4993310;28;45240;-83
2024/01/29 04:17:05;;;;;;;3.45;2.50;;;21.30;25.20;;;;;;4974805;28;45814;-81
2024/01/29 04:19:32;;;;;;;3.50;2.63;;;21.30;25.20;;;;;;4958519;28;45391;-83
2024/01/29 04:21:57;;;;;;;3.35;2.50;;;21.30;25.20;;;;;;4969541;28;45332;-84
2024/01/29 04:24:23;;;;;;;2.88;2.25;;;21.20;25.10;;;;;;4961966;28;45843;-85
2024/01/29 04:26:49;;;;;;;3.85;2.28;;;21.20;25.20;;;;;;4964164;28;45698;-83
2024/01/29 04:29:14;;;;;;;3.22;1.85;;;21.20;25.10;;;;;;4976293;28;44900;-85
2024/01/29 04:31:41;;;;;;;3.08;2.20;;;21.20;25.20;;;;;;4964429;28;45065;-85
2024/01/29 04:34:06;;;;;;;4.35;2.20;;;21.20;25.20;;;;;;4991285;28;45387;-82
2024/01/29 04:36:32;;;;;;;3.20;2.38;;;21.20;25.20;;;;;;4970384;28;46613;-84
2024/01/29 04:39:04;;;;;;;3.10;2.22;;;21.20;25.20;;;;;;4985447;28;45274;-82
2024/01/29 04:41:30;;;;;;;2.57;2.10;;;21.20;25.20;;;;;;4985743;28;45080;-83
2024/01/29 04:43:56;;;;;;;3.00;2.30;;;21.20;25.50;;;;;;4957079;28;45730;-85
2024/01/29 04:46:23;;;;;;;2.35;1.90;;;21.20;25.20;;;;;;4966013;28;45637;-82
2024/01/29 04:48:49;;;;;;;2.67;2.13;;;21.20;25.20;;;;;;4964301;28;45348;-86
2024/01/29 04:51:14;;;;;;;2.85;1.80;;;21.20;25.20;;;;;;4970258;28;44926;-86
2024/01/29 04:53:40;;;;;;;2.60;1.88;;;21.10;25.20;;;;;;4968663;28;45147;-85
2024/01/29 04:56:06;;;;;;;2.33;1.80;;;21.20;25.20;;;;;;4931520;28;46010;-85
2024/01/29 04:58:32;;;;;;;3.53;1.80;;;21.10;25.20;;;;;;4972989;28;45185;-87
2024/01/29 05:01:03;;;;;;;3.70;2.22;;;21.10;25.20;;;;;;4964558;28;45753;-87
2024/01/29 05:03:29;;;;;;;2.60;1.85;;;21.10;25.20;;;;;;4945511;28;45449;-81
2024/01/29 05:05:55;;;;;;;2.13;1.60;;;21.10;25.30;;;;;;4964440;28;46547;-82
2024/01/29 05:08:21;;;;;;;4.43;2.17;;;21.10;25.70;;;;;;4958194;28;45175;-84
2024/01/29 05:10:46;;;;;;;2.63;1.92;;;21.10;25.20;;;;;;4955514;28;45375;-84
2024/01/29 05:13:14;;;;;;;2.83;1.95;;;21.10;25.30;;;;;;4976673;28;45524;-83
2024/01/29 05:15:40;;;;;;;2.90;1.83;;;21.00;25.20;;;;;;4976067;28;46059;-87
2024/01/29 05:18:06;;;;;;;3.53;2.13;;;21.00;25.20;;;;;;4959475;28;45642;-83
2024/01/29 05:20:32;;;;;;;2.85;1.88;;;21.00;25.20;;;;;;4953815;28;44776;-84
2024/01/29 05:22:58;;;;;;;2.63;1.70;;;21.00;25.20;;;;;;4961306;28;45373;-84
2024/01/29 05:25:27;;;;;;;2.05;1.65;;;21.00;25.20;;;;;;4980612;28;45441;-82
2024/01/29 05:27:53;;;;;;;2.72;1.63;;;21.00;25.20;;;;;;4987419;28;45569;-82
2024/01/29 05:30:20;;;;;;;2.45;1.92;;;21.00;25.20;;;;;;4973462;28;45254;-85
2024/01/29 05:32:46;;;;;;;1.98;1.60;;;21.00;25.20;;;;;;4956662;28;45389;-81
2024/01/29 05:35:12;;;;;;;2.15;1.60;;;21.00;25.20;;;;;;4937792;28;46123;-81
2024/01/29 05:37:38;;;;;;;3.25;1.50;;;21.00;25.20;;;;;;4974171;28;45050;-82
2024/01/29 05:40:07;;;;;;;2.30;1.85;;;21.00;25.20;;;;;;4978968;28;45206;-84
2024/01/29 05:42:33;;;;;;;2.47;1.83;;;20.90;25.20;;;;;;4956421;28;45457;-84
2024/01/29 05:44:59;;;;;;;3.05;1.80;;;20.90;25.20;;;;;;4956738;28;45676;-84
2024/01/29 05:47:25;;;;;;;2.17;1.63;;;20.90;25.20;;;;;;4966325;28;45279;-84
2024/01/29 05:49:51;;;;;;;2.55;1.77;;;20.90;25.20;;;;;;5000149;28;45679;-84
2024/01/29 05:52:17;;;;;;;2.72;1.95;;;20.90;25.20;;;;;;4939759;28;45144;-84
2024/01/29 05:54:44;;;;;;;2.78;1.70;;;20.90;25.30;;;;;;4986414;28;47260;-85
2024/01/29 05:57:11;;;;;;;2.63;1.80;;;20.90;25.30;;;;;;4988076;28;44997;-82
2024/01/29 05:59:40;;;;;;;2.28;1.80;;;20.90;25.20;;;;;;4989192;28;45503;-82
2024/01/29 06:02:06;;;;;;;4.00;2.00;;;20.90;25.20;;;;;;4967010;28;45652;-84
2024/01/29 06:04:33;;;;;;;2.45;1.50;;;20.90;25.30;;;;;;4977390;28;46455;-82
2024/01/29 06:06:58;;;;;;;1.73;1.48;;;20.80;25.20;;;;;;4970142;28;45769;-82
2024/01/29 06:09:24;;;;;;;2.85;1.70;;;20.80;25.20;;;;;;4978588;28;45138;-81
2024/01/29 06:11:50;;;;;;;1.95;1.75;;;20.80;25.20;;;;;;4957282;28;45161;-83
2024/01/29 06:14:16;;;;;;;2.00;1.40;;;20.80;25.30;;;;;;4972614;28;46201;-83
2024/01/29 06:16:45;;;;;;;2.33;1.50;;;20.80;25.20;;;;;;4957030;28;45173;-84
2024/01/29 06:19:15;;;;;;;3.30;1.88;;;20.80;25.30;;;;;;4976783;28;45679;-84
2024/01/29 06:21:43;;;;;;;2.35;1.80;;;20.80;25.30;;;;;;4972604;28;45081;-84
2024/01/29 06:24:09;;;;;;;2.70;1.70;;;20.80;25.30;;;;;;4970397;28;46319;-83
2024/01/29 06:26:37;;;;;;;2.80;1.80;;;20.80;25.30;;;;;;4986533;28;45403;-83
2024/01/29 06:29:03;;;;;;;3.58;2.17;;;20.80;25.30;;;;;;4985275;28;45998;-82
2024/01/29 06:31:29;;;;;;;2.45;1.48;;;20.80;25.30;;;;;;4964186;28;45319;-82
2024/01/29 06:33:55;;;;;;;2.92;2.00;;;20.80;25.30;;;;;;4964506;28;47306;-84
2024/01/29 06:36:20;;;;;;;2.92;1.83;;;20.70;25.30;;;;;;4990815;28;45558;-84
2024/01/29 06:38:46;;;;;;;2.28;1.60;;;20.70;25.30;;;;;;4975425;28;45279;-83
2024/01/29 06:41:22;;;;;;;2.83;2.00;;;20.70;25.30;;;;;;4957403;28;45590;-83
2024/01/29 06:43:49;;;;;;;2.58;1.75;;;20.70;25.20;;;;;;4984269;28;47265;-84
2024/01/29 06:46:15;;;;;;;3.13;1.80;;;20.70;25.30;;;;;;4983254;28;45476;-82
2024/01/29 06:48:41;;;;;;;3.22;2.17;;;20.70;25.30;;;;;;5004505;28;45006;-82
2024/01/29 06:51:06;;;;;;;2.15;1.63;;;20.70;25.30;;;;;;4957358;28;45190;-82
2024/01/29 06:53:34;;;;;;;4.22;1.85;;;20.70;25.30;;;;;;4984514;28;45526;-83
2024/01/29 06:56:02;;;;;;;2.78;1.58;;;20.70;25.30;;;;;;4985115;28;45065;-84
2024/01/29 06:58:29;;;;;;;3.15;1.70;;;20.70;25.30;;;;;;4959884;28;44967;-82
2024/01/29 07:00:54;;;;;;;2.70;1.70;;;20.60;25.30;;;;;;4982765;28;44712;-84
2024/01/29 07:03:21;;;;;;;2.58;1.70;;;20.70;25.30;;;;;;4979369;28;46181;-83
2024/01/29 07:05:49;;;;;;;2.53;1.73;;;20.60;25.30;;;;;;4961417;28;44795;-84
2024/01/29 07:08:18;;;;;;;2.67;1.70;;;20.60;25.30;;;;;;4947149;28;45216;-82
2024/01/29 07:10:44;;;;;;;5.22;1.80;;;20.60;25.30;;;;;;4987574;28;45056;-85
2024/01/29 07:13:10;;;;;;;3.08;1.67;;;20.60;25.40;;;;;;4997242;28;45868;-81
2024/01/29 07:15:35;;;;;;;2.90;1.88;;;20.60;25.30;;;;;;4977490;28;45082;-82
2024/01/29 07:18:02;;;;;;;1.90;1.70;;;20.60;25.30;;;;;;4982690;28;45114;-81
2024/01/29 07:20:29;;;;;;;2.92;1.70;;;20.60;25.30;;;;;;4969913;28;45329;-82
2024/01/29 07:22:55;;;;;;;3.10;1.60;;;20.60;25.40;;;;;;4975663;28;46489;-82
2024/01/29 07:25:23;;;;;;;2.40;1.73;;;20.50;25.30;;;;;;4935577;28;45275;-84
2024/01/29 07:27:49;;;;;;;2.38;1.45;;;20.50;25.30;;;;;;4976349;28;44935;-82
2024/01/29 07:30:16;;;;;;;1.80;1.50;;;20.50;25.30;;;;;;4968397;28;46009;-82
2024/01/29 07:32:42;;;;;;;2.78;1.50;;;20.50;25.30;;;;;;4971977;28;45590;-83
2024/01/29 07:35:09;;;;;;;3.72;1.80;;;20.50;25.30;;;;;;4961203;28;45187;-83
2024/01/29 07:37:35;;;;;;;3.40;1.40;;;20.50;25.40;;;;;;4991349;28;45312;-84
2024/01/29 07:40:20;;;;;;;3.83;1.77;;;20.50;25.40;;;;;;4974369;28;45281;-83
2024/01/29 07:42:46;;;;;;;2.45;1.48;;;20.50;25.40;;;;;;4983571;28;46272;-83
2024/01/29 07:45:15;;;;;;;2.20;1.60;;;20.50;25.40;;;;;;4957699;28;45069;-84
2024/01/29 07:47:41;;;;;;;3.03;1.77;;;20.50;25.40;;;;;;4952466;28;45097;-83
2024/01/29 07:50:07;;;;;;;3.13;1.60;;;20.50;25.40;;;;;;4960001;28;44888;-88
2024/01/29 07:52:32;;;;;;;2.13;1.63;;;20.50;25.40;;;;;;4971751;28;45037;-82
2024/01/29 07:54:59;;;;;;;2.55;1.80;;;20.50;25.40;;;;;;4953351;28;45060;-83
2024/01/29 07:57:25;;;;;;;2.47;1.40;;;20.50;25.40;;;;;;4982776;28;45680;-83
2024/01/29 07:59:51;;;;;;;2.65;1.70;;;20.50;25.40;;;;;;4987256;28;45555;-83
2024/01/29 08:02:17;;;;;;;2.95;1.67;;;20.40;25.40;;;;;;4968179;28;46230;-82
2024/01/29 08:04:43;;;;;;;8.32;1.80;;;20.40;25.40;;;;;;4968688;28;45059;-83
2024/01/29 08:07:08;;;;;;;2.95;1.70;;;20.40;25.90;;;;;;4982329;28;45027;-82
2024/01/29 08:09:34;;;;;;;1.85;1.35;;;20.40;25.40;;;;;;4979201;28;45263;-82
2024/01/29 08:12:00;;;;;;;3.78;1.70;;;20.40;25.40;;;;;;4982320;28;46285;-82
2024/01/29 08:14:25;;;;;;;2.65;1.50;;;20.40;25.40;;;;;;4971875;28;45160;-84
2024/01/29 08:16:51;;;;;;;2.53;1.42;;;20.40;25.40;;;;;;4969102;28;44970;-83
2024/01/29 08:19:17;;;;;;;2.40;1.80;;;20.40;25.50;;;;;;4984287;28;45478;-83
2024/01/29 08:21:43;;;;;;;2.15;1.63;;;20.40;25.50;;;;;;4952456;28;46269;-85
2024/01/29 08:24:08;;;;;;;2.20;1.38;;;20.30;25.40;;;;;;4979926;28;45372;-82
2024/01/29 08:26:34;;;;;;;1.73;1.25;;;20.40;25.50;;;;;;4976634;28;45296;-82
2024/01/29 08:29:00;;;;;;;2.63;1.60;;;20.40;25.50;;;;;;4960825;28;44989;-85
2024/01/29 08:31:26;;;;;;;2.70;1.45;;;20.40;25.50;;;;;;4971857;28;45711;-84
2024/01/29 08:33:52;;;;;;;3.33;2.00;;;20.30;25.50;;;;;;4984606;28;44945;-84
2024/01/29 08:36:20;;;;;;;2.53;1.50;;;20.30;25.50;;;;;;4943011;28;45536;-84
2024/01/29 08:38:46;;;;;;;2.42;1.48;;;20.30;25.50;;;;;;4975184;28;45005;-84
2024/01/29 08:41:13;;;;;;;2.70;1.60;;;20.30;25.50;;;;;;4997073;28;45762;-84
2024/01/29 08:43:39;;;;;;;3.90;1.98;;;20.40;26.00;;;;;;4975498;28;45427;-83
2024/01/29 08:46:05;;;;;;;2.25;1.67;;;20.30;25.50;;;;;;4951513;28;46221;-82
2024/01/29 08:48:31;;;;;;;3.35;1.88;;;20.30;25.60;;;;;;4988377;28;45262;-83
2024/01/29 08:50:57;;;;;;;3.25;1.88;;;20.30;25.50;;;;;;4975739;28;45924;-83
2024/01/29 08:53:22;;;;;;;2.70;1.52;;;20.30;25.50;;;;;;4971168;28;45265;-83
2024/01/29 08:55:48;;;;;;;2.17;1.50;;;20.30;25.50;;;;;;4959605;28;44925;-84
2024/01/29 08:58:14;;;;;;;3.45;1.60;;;20.30;25.60;;;;;;4953161;28;44990;-84
2024/01/29 09:00:40;;;;;;;1.70;1.40;;;20.30;25.60;;;;;;4989855;28;45940;-85
2024/01/29 09:03:06;;;;;;;2.28;1.50;;;20.30;25.60;;;;;;4961662;28;45886;-86
2024/01/29 09:05:31;;;;;;;2.85;1.80;;;20.30;25.60;;;;;;4956604;28;44752;-84
2024/01/29 09:07:57;;;;;;;2.78;1.60;;;20.20;25.60;;;;;;4978590;28;45233;-83
2024/01/29 09:10:23;;;;;;;3.75;1.85;;;20.20;25.60;;;;;;4971926;28;45096;-83
2024/01/29 09:12:49;;;;;;;2.67;1.90;;;20.20;25.70;;;;;;4968013;28;44626;-82
2024/01/29 09:15:21;;;;;;;3.03;1.73;;;20.20;25.70;;;;;;4987043;28;44769;-82
2024/01/29 09:17:47;;;;;;;5.88;2.25;;;20.20;25.70;;;;;;4973389;28;45737;-85
2024/01/29 09:20:14;;;;;;;2.45;1.63;;;20.20;25.70;;;;;;4976964;28;47338;-85
2024/01/29 09:22:40;;;;;;;2.25;1.77;;;20.20;25.70;;;;;;4975816;28;45188;-82
2024/01/29 09:25:07;;;;;;;3.00;1.90;;;20.20;25.80;;;;;;4974387;28;45024;-85
2024/01/29 09:27:33;;;;;;;2.60;1.70;;;20.20;25.70;;;;;;4941256;28;45234;-85
2024/01/29 09:29:59;;;;;;;2.78;1.95;;;20.20;25.80;;;;;;4979861;28;46225;-83
2024/01/29 09:32:25;;;;;;;2.50;1.70;;;20.20;25.80;;;;;;4970089;28;45218;-83
2024/01/29 09:34:51;;;;;;;4.10;1.77;;;20.20;25.80;;;;;;4966514;28;45275;-84
2024/01/29 09:37:18;;;;;;;3.17;1.77;;;20.30;25.80;;;;;;4958813;28;44914;-83
2024/01/29 09:39:47;;;;;;;2.92;1.80;;;20.20;25.80;;;;;;4995649;28;46592;-83
2024/01/29 09:42:40;;;;;;;4.35;2.05;;;20.30;25.80;;;;;;4991873;28;45161;-82
2024/01/29 09:45:12;;;;;;;3.70;1.73;;;20.30;25.90;;;;;;4972799;28;45598;-87
2024/01/29 09:47:38;;;;;;;3.97;1.90;;;20.30;25.90;;;;;;4972136;28;45257;-84
2024/01/29 09:50:11;;;;;;;2.15;1.50;;;20.30;25.90;;;;;;4962932;28;47240;-84
2024/01/29 09:52:37;;;;;;;2.47;1.63;;;20.30;25.90;;;;;;4960195;28;45212;-84
2024/01/29 09:55:11;;;;;;;3.63;1.67;;;20.30;25.90;;;;;;4974258;28;45103;-87
2024/01/29 09:57:38;;;;;;;3.25;1.60;;;20.30;25.90;;;;;;4985883;28;45795;-83
2024/01/29 10:00:12;;;;;;;2.33;1.67;;;20.40;26.00;;;;;;4973949;28;46184;-87
2024/01/29 10:02:38;;;;;;;2.55;1.50;;;20.40;26.00;;;;;;4990071;28;45363;-83
2024/01/29 10:05:11;;;;;;;3.10;1.88;;;20.40;26.00;;;;;;4988856;28;45453;-86
2024/01/29 10:07:37;;;;;;;2.22;1.60;;;20.40;26.00;;;;;;4988157;28;45244;-84
2024/01/29 10:10:13;;;;;;;2.65;1.60;;;20.40;26.00;;;;;;4961381;28;45583;-88
2024/01/29 10:12:39;;;;;;;2.08;1.70;;;20.50;26.10;;;;;;4957382;28;44927;-83
2024/01/29 10:15:31;;;;;;;3.17;1.60;;;20.50;26.10;;;;;;4991673;28;45017;-82
2024/01/29 10:17:59;;;;;;;2.40;1.90;;;20.50;26.10;;;;;;4971769;28;45507;-82
2024/01/29 10:20:25;;;;;;;2.15;1.70;;;20.60;26.10;;;;;;4971409;28;46256;-83
2024/01/29 10:23:00;;;;;;;2.22;1.85;;;20.50;26.10;;;;;;4972961;28;45656;-83
2024/01/29 10:25:27;;;;;;;4.43;1.95;;;20.60;26.10;;;;;;4991684;28;44905;-85
2024/01/29 10:27:53;;;;;;;3.40;1.70;;;20.60;26.10;;;;;;4994288;28;45758;-85
2024/01/29 10:30:22;;;;;;;2.45;1.42;;;20.60;26.10;;;;;;4990146;28;46175;-88
2024/01/29 10:32:48;;;;;;;2.60;1.80;;;20.60;26.60;;;;;;4999584;28;44642;-84
2024/01/29 10:35:13;;;;;;;2.47;1.52;;;20.70;26.10;;;;;;4962633;28;44940;-85
2024/01/29 10:37:39;;;;;;;3.60;2.00;;;20.70;26.10;;;;;;4976194;28;44840;-85
2024/01/29 10:40:08;;;;;;;2.50;1.55;;;20.70;26.40;;;;;;4959889;28;46164;-84
2024/01/29 10:42:36;;;;;;;3.13;1.70;;;20.80;26.10;;;;;;4997249;28;44729;-86
2024/01/29 10:45:11;;;;;;;2.40;1.52;;;20.80;26.20;;;;;;4991307;28;45168;-84
2024/01/29 10:47:43;;;;;;;3.28;1.63;;;20.80;26.20;;;;;;4977550;28;45015;-84
2024/01/29 10:50:18;;;;;;;3.45;1.65;;;20.90;26.20;;;;;;4971584;28;45560;-88
2024/01/29 10:53:07;;;;;;;3.83;1.85;;;20.80;26.20;;;;;;4981109;28;45097;-85
2024/01/29 10:55:33;;;;;;;2.25;1.77;;;20.90;26.50;;;;;;4989022;28;45010;-86
2024/01/29 10:58:01;;;;;;;2.72;1.70;;;20.90;26.20;;;;;;4979398;28;45323;-84
2024/01/29 11:00:35;;;;;;;3.45;1.80;;;20.90;26.20;;;;;;4963473;28;46266;-89
2024/01/29 11:03:01;;;;;;;;;;;21.00;26.30;;;;;;4946241;28;45052;-84
2024/01/29 11:05:31;;;;;;;2.55;1.75;;;21.00;26.30;;;;;;4987780;28;45405;-88
2024/01/29 11:07:57;;;;;;;3.78;1.85;;;21.00;26.20;;;;;;4973739;28;45264;-85
2024/01/29 11:10:23;;;;;;;2.78;1.60;;;21.10;26.20;;;;;;4985571;28;46048;-85
2024/01/29 11:12:53;;;;;;;2.60;1.90;;;21.10;26.20;;;;;;4962142;28;45049;-85
2024/01/29 11:15:22;;;;;;;2.30;1.58;;;21.10;26.20;;;;;;4948246;28;45551;-87
2024/01/29 11:17:48;;;;;;;3.00;1.70;;;21.20;26.30;;;;;;4976501;28;44883;-85
2024/01/29 11:20:20;;;;;;;2.58;1.75;;;21.20;26.30;;;;;;4982056;28;46473;-85
2024/01/29 11:22:50;;;;;;;2.40;1.73;;;21.30;26.30;;;;;;4978836;28;45579;-85
2024/01/29 11:25:17;;;;;;;2.45;1.83;;;21.30;26.30;;;;;;4972996;28;45471;-86
2024/01/29 11:27:43;;;;;;;4.15;1.98;;;21.30;26.30;;;;;;4988694;28;45327;-84
2024/01/29 11:30:16;;;;;;;6.18;1.92;;;21.40;26.30;;;;;;4973099;28;45635;-87
2024/01/29 11:32:42;;;;;;;2.50;1.65;;;21.40;26.30;;;;;;4970089;28;44726;-85
2024/01/29 11:35:15;;;;;;;2.78;1.60;;;21.40;26.80;;;;;;4973135;28;45375;-85
2024/01/29 11:37:41;;;;;;;3.08;1.80;;;21.50;26.40;;;;;;4958107;28;45582;-87
2024/01/29 11:40:34;;;;;;;3.45;1.70;;;21.50;26.30;;;;;;4961812;28;45902;-86
2024/01/29 11:43:04;;;;;;;4.05;1.88;;;21.50;26.40;;;;;;4961137;28;45288;-86
2024/01/29 11:45:32;;;;;;;3.38;1.95;;;21.50;26.30;;;;;;4973988;28;44968;-85
2024/01/29 11:47:59;;;;;;;3.33;1.80;;;21.60;26.30;;;;;;4957616;28;45444;-85
2024/01/29 11:50:25;;;;;;;3.78;1.77;;;21.60;26.30;;;;;;4959123;28;46387;-87
2024/01/29 11:52:51;;;;;;;2.13;1.75;;;21.60;26.30;;;;;;4959835;28;45215;-85
2024/01/29 11:55:23;;;;;;;2.03;1.70;;;21.70;26.30;;;;;;4959939;28;45253;-86
2024/01/29 11:57:52;;;;;;;4.00;1.70;;;21.70;26.30;;;;;;4950556;28;45101;-85
2024/01/29 12:00:19;;;;;;;3.42;1.90;;;21.80;26.30;;;;;;4973093;28;45350;-85
2024/01/29 12:02:48;;;;;;;3.28;1.77;;;21.80;26.30;;;;;;4957052;28;46365;-85
2024/01/29 12:05:20;;;;;;;2.47;1.70;;;21.80;26.20;;;;;;4959474;28;45185;-85
2024/01/29 12:07:47;;;;;;;3.67;1.38;;;21.90;26.20;;;;;;4965075;28;45756;-86
2024/01/29 12:10:16;;;;;;;3.55;1.63;;;22.00;26.30;;;;;;4955735;28;48562;-87
2024/01/29 12:12:41;;;;;;;3.00;1.70;;;22.00;26.20;;;;;;4960969;28;45519;-85
2024/01/29 12:15:10;;;;;;;2.75;1.60;;;22.00;26.20;;;;;;4967732;28;45727;-86
2024/01/29 12:17:41;;;;;;;3.25;2.03;;;22.00;26.20;;;;;;4971771;28;45055;-86
2024/01/29 12:20:15;;;;;;;3.38;2.28;;;22.10;26.20;;;;;;4942422;28;46277;-87
2024/01/29 12:22:44;;;;;;;2.75;1.75;;;22.20;26.30;;;;;;4952704;28;45314;-86
2024/01/29 12:25:11;;;;;;;3.58;1.60;;;22.10;26.20;;;;;;4954322;28;44958;-84
2024/01/29 12:27:40;;;;;;;2.42;1.80;;;22.10;26.10;;;;;;4954669;28;46963;-86
2024/01/29 12:30:15;;;;;;;4.47;1.45;;;22.10;26.10;;;;;;4966896;28;46813;-86
2024/01/29 12:32:43;;;;;;;2.33;1.60;;;22.20;26.20;;;;;;4955897;28;45122;-85
2024/01/29 12:35:28;;;;;;;2.90;1.60;;;22.20;26.20;;;;;;4972490;28;45172;-86
2024/01/29 12:38:04;;;;;;;2.17;1.70;;;22.30;26.10;;;;;;4958646;28;45296;-85
2024/01/29 12:40:30;;;;;;;2.97;1.80;;;22.30;26.10;;;;;;4989014;28;46114;-85
2024/01/29 12:43:01;;;;;;;2.30;1.90;;;22.30;26.20;;;;;;4970767;28;45350;-85
2024/01/29 12:45:31;;;;;;;3.60;1.73;;;22.30;26.10;;;;;;4981018;28;45507;-87
2024/01/29 12:48:12;;;;;;;2.90;1.60;;;22.30;26.10;;;;;;4986599;28;46422;-86
2024/01/29 12:50:40;;;;;;;2.47;1.58;;;22.40;26.20;;;;;;4969646;28;46031;-85
2024/01/29 12:53:06;;;;;;;4.53;2.03;;;22.30;26.10;;;;;;4956269;28;44946;-85
2024/01/29 12:55:33;;;;;;;2.65;1.83;;;22.40;26.10;;;;;;4958306;28;45857;-87
2024/01/29 12:57:59;;;;;;;3.05;1.83;;;22.40;26.10;;;;;;4983963;28;45328;-85
2024/01/29 13:00:25;;;;;;;4.05;2.15;;;22.40;26.10;;;;;;4954253;28;46044;-85
2024/01/29 13:02:51;;;;;;;3.78;2.08;;;22.40;26.10;;;;;;4982692;28;45243;-86
2024/01/29 13:05:18;;;;;;;3.17;2.05;;;22.50;26.10;;;;;;4984896;28;45779;-85
2024/01/29 13:07:44;;;;;;;2.53;1.80;;;22.50;26.10;;;;;;4972982;28;44975;-85
2024/01/29 13:10:10;;;;;;;2.88;1.77;;;22.50;26.10;;;;;;4954181;28;46114;-87
2024/01/29 13:12:35;;;;;;;1.92;1.50;;;22.50;26.20;;;;;;4974116;28;45537;-85
2024/01/29 13:15:10;;;;;;;2.65;1.73;;;22.50;26.10;;;;;;4988929;28;46018;-85
2024/01/29 13:17:36;;;;;;;2.30;1.70;;;22.50;26.10;;;;;;4972843;28;44856;-85
2024/01/29 13:20:11;;;;;;;1.92;1.60;;;22.50;26.10;;;;;;4960585;28;46375;-87
2024/01/29 13:22:40;;;;;;;2.17;1.40;;;22.50;26.10;;;;;;5001868;28;46462;-86
2024/01/29 13:25:11;;;;;;;2.03;1.70;;;22.50;26.10;;;;;;4937459;28;45421;-85
2024/01/29 13:27:40;;;;;;;2.45;1.50;;;22.50;26.10;;;;;;4960276;28;45346;-85
2024/01/29 13:30:15;;;;;;;2.58;1.90;;;22.60;26.10;;;;;;4973810;28;46194;-87
2024/01/29 13:32:41;;;;;;;1.88;1.50;;;22.60;26.10;;;;;;4954190;28;44870;-85
2024/01/29 13:35:07;;;;;;;2.85;1.70;;;22.60;26.10;;;;;;4957119;28;44793;-85
2024/01/29 13:37:37;;;;;;;2.88;1.63;;;22.60;26.10;;;;;;4977953;28;45438;-85
2024/01/29 13:40:14;;;;;;;2.25;1.50;;;22.60;26.10;;;;;;4978394;28;46725;-87
2024/01/29 13:42:40;;;;;;;3.58;1.55;;;22.60;26.10;;;;;;4962584;28;45037;-85
2024/01/29 13:45:13;;;;;;;3.13;1.50;;;22.60;26.10;;;;;;4986842;28;45904;-88
2024/01/29 13:47:40;;;;;;;2.25;1.63;;;22.60;26.20;;;;;;4988748;28;45004;-86
2024/01/29 13:50:14;;;;;;;2.60;1.48;;;22.60;26.10;;;;;;4974457;28;48038;-85
2024/01/29 13:52:40;;;;;;;2.55;1.60;;;22.60;26.10;;;;;;4975764;28;45209;-84
2024/01/29 13:55:11;;;;;;;2.67;1.60;;;22.60;26.20;;;;;;4984681;28;44754;-88
2024/01/29 13:57:37;;;;;;;2.17;1.73;;;22.60;26.10;;;;;;4975154;28;44690;-85
2024/01/29 14:00:15;;;;;;;2.63;1.70;;;22.60;26.70;;;;;;4964903;28;46912;-88
2024/01/29 14:02:41;;;;;;;3.22;2.10;;;22.60;26.10;;;;;;4977089;28;45111;-85
2024/01/29 14:05:08;;;;;;;2.75;1.75;;;22.60;26.20;;;;;;4997747;28;44911;-85
2024/01/29 14:07:35;;;;;;;1.80;1.40;;;22.60;26.20;;;;;;4961900;28;44795;-88
2024/01/29 14:10:01;;;;;;;2.90;1.63;;;22.60;26.20;;;;;;4994586;28;45175;-85
2024/01/29 14:12:27;;;;;;;2.25;1.45;;;22.60;26.20;;;;;;4964475;28;44870;-85
2024/01/29 14:14:55;;;;;;;2.40;1.70;;;22.60;26.20;;;;;;4998699;28;45246;-84
2024/01/29 14:17:23;;;;;;;2.20;1.73;;;22.70;26.20;;;;;;4971648;28;45029;-85
2024/01/29 14:19:49;;;;;;;2.60;1.80;;;22.60;26.20;;;;;;4975988;28;46155;-85
2024/01/29 14:22:17;;;;;;;2.65;1.30;;;22.60;26.20;;;;;;4981106;28;45125;-85
2024/01/29 14:24:43;;;;;;;2.10;1.60;;;22.60;26.20;;;;;;4982436;28;44850;-85
2024/01/29 14:27:09;;;;;;;1.40;1.23;;;22.60;26.20;;;;;;5001381;28;46817;-85
2024/01/29 14:29:36;;;;;;;1.33;1.08;;;22.70;26.20;;;;;;4980074;28;45909;-84
2024/01/29 14:32:03;;;;;;;3.28;1.50;;;22.70;26.20;;;;;;4974517;28;44693;-85
2024/01/29 14:34:29;;;;;;;3.40;1.67;;;22.60;26.20;;;;;;4990570;28;44699;-88
2024/01/29 14:36:55;;;;;;;1.98;1.67;;;22.70;26.20;;;;;;4984640;28;44903;-85
2024/01/29 14:39:21;;;;;;;1.60;1.50;;;22.70;26.30;;;;;;4993405;28;46570;-86
2024/01/29 14:41:50;;;;;;;2.15;1.50;;;22.70;26.20;;;;;;4961208;28;45654;-86
2024/01/29 14:44:16;;;;;;;2.70;1.60;;;22.70;26.30;;;;;;4969890;28;44923;-85
2024/01/29 14:46:42;;;;;;;2.88;1.70;;;22.70;26.30;;;;;;4970474;28;45305;-84
2024/01/29 14:49:08;;;;;;;2.13;1.70;;;22.70;26.30;;;;;;4965432;28;47301;-86
2024/01/29 14:51:34;;;;;;;2.30;1.75;;;22.60;26.30;;;;;;4974410;28;45216;-83
2024/01/29 14:53:59;;;;;;;2.25;1.67;;;22.70;26.30;;;;;;4955565;28;45592;-84
2024/01/29 14:56:25;;;;;;;2.00;1.67;;;22.70;26.30;;;;;;4959919;28;45392;-84
2024/01/29 14:58:51;;;;;;;3.83;1.75;;;22.70;26.30;;;;;;4960004;28;45552;-84
2024/01/29 15:01:17;;;;;;;2.65;1.77;;;22.60;26.30;;;;;;4962007;23;45381;-41
2024/01/29 15:03:45;;;;;;;2.67;1.80;;;22.70;26.50;;;;;;4938151;28;45303;-42
2024/01/29 15:06:19;;;;;;;2.70;1.83;;;22.70;26.30;;;;;;4925163;28;46567;-41
2024/01/29 15:08:44;;;;;;;3.30;2.10;;;22.60;26.40;;;;;;4939362;28;46089;-42
2024/01/29 15:11:10;;;;;;;2.80;1.90;;;22.70;26.30;;;;;;4939905;28;45263;-41
2024/01/29 15:13:35;;;;;;;2.70;2.08;;;22.60;26.30;;;;;;4960292;28;45395;-42
2024/01/29 15:16:03;;;;;;;3.13;1.88;;;22.70;26.40;;;;;;4940741;28;45817;-42
2024/01/29 15:18:28;;;;;;;2.17;1.70;;;22.70;26.40;;;;;;4943098;28;46287;-42
2024/01/29 15:20:54;;;;;;;2.63;1.90;;;22.70;26.40;;;;;;4945001;28;45378;-41
2024/01/29 15:23:20;;;;;;;3.20;2.10;;;22.60;26.40;;;;;;4952827;28;46281;-41
2024/01/29 15:25:45;;;;;;;2.20;1.80;;;22.70;26.40;;;;;;4953198;28;45532;-42
2024/01/29 15:28:11;;;;;;;2.47;1.80;;;22.60;26.40;;;;;;4951994;28;45928;-43
2024/01/29 15:30:37;;;;;;;3.90;2.10;;;22.70;26.40;;;;;;4946635;28;45040;-41
2024/01/29 15:33:06;;;;;;;2.92;1.90;;;22.70;26.40;;;;;;4937493;28;45645;-42
2024/01/29 15:35:32;;;;;;;2.75;2.00;;;22.70;26.40;;;;;;4944324;28;45871;-42
2024/01/29 15:37:58;;;;;;;3.25;2.03;;;22.70;26.40;;;;;;4951542;28;45469;-42
2024/01/29 15:40:23;;;;;;;2.22;1.75;;;22.60;26.40;;;;;;4944846;28;45247;-41
2024/01/29 15:42:50;;;;;;;3.50;2.05;;;22.60;26.40;;;;;;4953448;28;44733;-41
2024/01/29 15:45:16;;;;;;;2.88;2.10;;;22.60;26.50;;;;;;4942306;28;45306;-41
2024/01/29 15:47:43;;;;;;;2.53;2.00;;;22.60;26.40;;;;;;4949961;28;45656;-41
2024/01/29 15:50:08;;;;;;;2.08;1.88;;;22.60;26.50;;;;;;4944659;28;45961;-44
2024/01/29 15:52:35;;;;;;;2.80;2.10;;;22.60;26.50;;;;;;4949228;28;45251;-41
2024/01/29 15:55:02;;;;;;;2.90;1.85;;;22.60;26.50;;;;;;4947089;28;46398;-42
2024/01/29 15:57:28;;;;;;;2.97;1.80;;;22.60;26.50;;;;;;4923552;28;45656;-42
2024/01/29 15:59:55;;;;;;;2.60;2.15;;;22.60;26.50;;;;;;4956230;28;44992;-42
2024/01/29 16:02:21;;;;;;;2.75;2.13;;;22.60;26.50;;;;;;4928012;28;45764;-41
2024/01/29 16:04:46;;;;;;;3.13;1.80;;;22.60;26.50;;;;;;4934995;28;45783;-42
2024/01/29 16:07:12;;;;;;;3.20;2.13;;;22.60;26.50;;;;;;4925013;28;46238;-40
2024/01/29 16:09:37;;;;;;;4.28;2.00;;;22.60;26.60;;;;;;4936360;28;45231;-41
2024/01/29 16:12:03;;;;;;;3.53;2.15;;;22.60;26.60;;;;;;4908187;28;45370;-42
2024/01/29 16:14:29;;;;;;;2.85;2.20;;;22.60;26.50;;;;;;4928792;28;46111;-42
2024/01/29 16:16:55;;;;;;;3.22;2.20;;;22.60;26.60;;;;;;4919754;28;45713;-42
2024/01/29 16:19:20;;;;;;;4.13;1.98;;;22.60;26.60;;;;;;4932216;28;45812;-41
2024/01/29 16:21:46;;;;;;;2.47;1.67;;;22.60;27.00;;;;;;4925578;28;46053;-41
2024/01/29 16:24:12;;;;;;;3.53;1.95;;;22.60;26.60;;;;;;4930847;28;45912;-43
2024/01/29 16:26:37;;;;;;;2.72;2.00;;;22.60;26.60;;;;;;4910702;28;46853;-43
2024/01/29 16:29:03;;;;;;;2.17;1.80;;;22.60;26.60;;;;;;4929175;28;45438;-43
2024/01/29 16:31:28;;;;;;;3.47;2.05;;;22.60;26.60;;;;;;4913827;28;44859;-42
2024/01/29 16:33:55;;;;;;;3.13;1.98;;;22.60;26.60;;;;;;4919263;28;45314;-41
2024/01/29 16:36:21;;;;;;;4.22;2.40;;;22.60;26.60;;;;;;4909366;28;46288;-42
2024/01/29 16:38:47;;;;;;;4.82;2.30;;;22.60;26.60;;;;;;4928882;28;45056;-42
2024/01/29 16:41:24;;;;;;;4.07;2.00;;;22.60;26.60;;;;;;4924515;28;45093;-43
2024/01/29 16:43:50;;;;;;;5.03;1.95;;;22.60;26.60;;;;;;4935960;28;45209;-41
2024/01/29 16:46:15;;;;;;;3.00;2.00;;;22.60;26.60;;;;;;4917545;28;45380;-41
2024/01/29 16:48:41;;;;;;;2.35;2.10;;;22.60;26.60;;;;;;4930308;28;45143;-42
2024/01/29 16:51:07;;;;;;;3.42;2.03;;;22.60;26.60;;;;;;4916700;28;46005;-42